createdAt,value
2019-06-10T00:02:10.910Z,17.60
2019-06-10T00:04:41.571Z,17.60
2019-06-10T00:07:11.863Z,17.50
2019-06-10T00:09:40.851Z,17.40
2019-06-10T00:12:12.365Z,17.40
2019-06-10T00:14:41.844Z,17.40
2019-06-10T00:17:11.177Z,17.30
2019-06-10T00:19:40.902Z,17.30
2019-06-10T00:22:11.488Z,17.30
2019-06-10T00:24:41.004Z,17.30
2019-06-10T00:27:21.599Z,17.30
2019-06-10T00:29:51.272Z,17.30
2019-06-10T00:32:53.464Z,17.30
2019-06-10T00:35:22.158Z,17.30
2019-06-10T00:37:51.305Z,17.30
2019-06-10T00:40:21.497Z,17.30
2019-06-10T00:42:50.770Z,17.30
2019-06-10T00:45:21.641Z,17.30
2019-06-10T00:47:52.059Z,17.30
2019-06-10T00:50:23.126Z,17.30
2019-06-10T00:52:52.084Z,17.30
2019-06-10T00:55:21.780Z,17.20
2019-06-10T00:57:52.239Z,17.30
2019-06-10T01:00:25.530Z,17.30
2019-06-10T01:02:51.854Z,17.20
2019-06-10T01:05:20.903Z,17.10
2019-06-10T01:07:50.871Z,17.10
2019-06-10T01:10:21.089Z,17.00
2019-06-10T01:12:51.360Z,17.00
2019-06-10T01:15:21.959Z,17.10
2019-06-10T01:17:52.417Z,17.10
2019-06-10T01:20:21.144Z,17.10
2019-06-10T01:22:51.633Z,17.10
2019-06-10T01:25:21.665Z,17.10
2019-06-10T01:27:51.521Z,17.00
2019-06-10T01:30:24.552Z,16.90
2019-06-10T01:32:50.989Z,16.90
2019-06-10T01:35:21.050Z,16.90
2019-06-10T01:37:53.354Z,16.80
2019-06-10T01:40:22.214Z,16.80
2019-06-10T01:42:50.991Z,16.90
2019-06-10T01:45:21.263Z,16.80
2019-06-10T01:47:51.103Z,16.80
2019-06-10T01:50:21.850Z,16.80
2019-06-10T01:53:00.677Z,16.70
2019-06-10T01:55:25.252Z,16.80
2019-06-10T01:57:53.948Z,16.80
2019-06-10T02:00:26.066Z,16.80
2019-06-10T02:02:54.821Z,16.80
2019-06-10T02:05:23.485Z,16.80
2019-06-10T02:07:53.049Z,16.80
2019-06-10T02:10:22.982Z,16.80
2019-06-10T02:12:51.861Z,16.90
2019-06-10T02:15:22.617Z,16.80
2019-06-10T02:17:51.104Z,16.80
2019-06-10T02:20:23.504Z,16.90
2019-06-10T02:22:51.546Z,16.90
2019-06-10T02:25:21.682Z,16.90
2019-06-10T02:27:52.481Z,16.80
2019-06-10T02:30:35.663Z,16.80
2019-06-10T02:32:52.447Z,16.80
2019-06-10T02:35:30.422Z,16.80
2019-06-10T02:37:54.359Z,16.80
2019-06-10T02:40:31.091Z,16.80
2019-06-10T02:42:55.321Z,16.80
2019-06-10T02:45:32.350Z,16.70
2019-06-10T02:47:58.988Z,16.70
2019-06-10T02:50:54.572Z,16.70
2019-06-10T02:53:30.168Z,16.70
2019-06-10T02:55:54.221Z,16.70
2019-06-10T02:58:30.379Z,16.70
2019-06-10T03:00:54.656Z,16.70
2019-06-10T03:03:35.829Z,16.80
2019-06-10T03:05:55.864Z,16.70
2019-06-10T03:08:43.387Z,16.70
2019-06-10T03:11:08.630Z,16.70
2019-06-10T03:13:38.381Z,16.80
2019-06-10T03:16:08.890Z,16.70
2019-06-10T03:18:39.413Z,16.70
2019-06-10T03:21:08.692Z,16.70
2019-06-10T03:23:42.661Z,16.70
2019-06-10T03:26:17.199Z,16.60
2019-06-10T03:28:46.052Z,16.60
2019-06-10T03:31:16.321Z,16.50
2019-06-10T03:33:47.850Z,16.40
2019-06-10T03:36:16.415Z,16.30
2019-06-10T03:38:47.124Z,16.30
2019-06-10T03:41:16.527Z,16.40
2019-06-10T03:43:45.647Z,16.40
2019-06-10T03:46:14.525Z,16.40
2019-06-10T03:48:43.517Z,16.60
2019-06-10T03:51:12.856Z,16.50
2019-06-10T03:53:42.587Z,16.50
2019-06-10T03:56:12.781Z,16.50
2019-06-10T03:58:43.046Z,16.40
2019-06-10T04:01:12.387Z,16.40
2019-06-10T04:03:42.651Z,16.50
2019-06-10T04:06:17.970Z,16.50
2019-06-10T04:08:46.780Z,16.50
2019-06-10T04:11:15.444Z,16.50
2019-06-10T04:13:47.029Z,16.50
2019-06-10T04:16:15.696Z,16.60
2019-06-10T04:18:44.645Z,16.60
2019-06-10T04:21:13.266Z,16.60
2019-06-10T04:23:42.604Z,16.50
2019-06-10T04:26:12.776Z,16.50
2019-06-10T04:28:43.056Z,16.60
2019-06-10T04:31:13.105Z,16.60
2019-06-10T04:33:42.621Z,16.70
2019-06-10T04:36:13.635Z,16.80
2019-06-10T04:38:43.171Z,16.90
2019-06-10T04:41:12.608Z,17.00
2019-06-10T04:43:43.149Z,17.10
2019-06-10T04:46:12.684Z,17.00
2019-06-10T04:48:42.618Z,17.20
2019-06-10T04:51:13.038Z,17.30
2019-06-10T04:53:43.509Z,17.40
2019-06-10T04:56:12.618Z,17.40
2019-06-10T04:58:43.265Z,17.40
2019-06-10T05:01:12.486Z,17.30
2019-06-10T05:03:43.371Z,17.30
2019-06-10T05:06:21.722Z,17.30
2019-06-10T05:08:49.442Z,17.20
2019-06-10T05:11:19.072Z,17.30
2019-06-10T05:13:47.694Z,17.20
2019-06-10T05:16:16.373Z,17.20
2019-06-10T05:18:46.796Z,17.20
2019-06-10T05:21:15.593Z,17.30
2019-06-10T05:23:44.239Z,17.30
2019-06-10T05:26:13.417Z,17.30
2019-06-10T05:28:43.323Z,17.20
2019-06-10T05:31:12.945Z,17.20
2019-06-10T05:33:42.651Z,17.20
2019-06-10T05:36:13.710Z,17.30
2019-06-10T05:38:43.389Z,17.40
2019-06-10T05:41:13.296Z,17.40
2019-06-10T05:43:43.088Z,17.40
2019-06-10T05:46:13.475Z,17.50
2019-06-10T05:48:45.094Z,17.50
2019-06-10T05:51:14.052Z,17.60
2019-06-10T05:53:45.739Z,17.60
2019-06-10T05:56:13.536Z,17.50
2019-06-10T05:58:43.591Z,17.60
2019-06-10T06:01:13.387Z,17.60
2019-06-10T06:03:46.842Z,17.60
2019-06-10T06:06:13.126Z,17.70
2019-06-10T06:08:42.903Z,17.60
2019-06-10T06:11:19.203Z,17.70
2019-06-10T06:13:53.879Z,17.70
2019-06-10T06:16:20.151Z,17.70
2019-06-10T06:18:53.381Z,17.80
2019-06-10T06:21:31.335Z,17.80
2019-06-10T06:23:56.054Z,17.80
2019-06-10T06:26:26.401Z,17.70
2019-06-10T06:28:55.183Z,17.60
2019-06-10T06:31:23.804Z,17.70
2019-06-10T06:33:55.879Z,17.70
2019-06-10T06:36:24.549Z,17.80
2019-06-10T06:38:53.359Z,17.80
2019-06-10T06:41:22.631Z,17.80
2019-06-10T06:43:53.062Z,17.70
2019-06-10T06:46:23.323Z,17.80
2019-06-10T06:48:53.203Z,17.90
2019-06-10T06:51:35.866Z,17.90
2019-06-10T06:53:56.385Z,18.00
2019-06-10T06:56:23.283Z,18.00
2019-06-10T06:58:52.577Z,18.00
2019-06-10T07:01:25.937Z,18.00
2019-06-10T07:03:54.908Z,18.00
2019-06-10T07:06:34.539Z,18.00
2019-06-10T07:09:08.181Z,18.00
2019-06-10T07:11:40.343Z,18.00
2019-06-10T07:14:10.336Z,18.00
2019-06-10T07:16:41.607Z,18.00
2019-06-10T07:19:09.941Z,18.10
2019-06-10T07:21:58.204Z,18.00
2019-06-10T07:24:34.230Z,18.10
2019-06-10T07:26:58.702Z,18.10
2019-06-10T07:29:27.326Z,18.10
2019-06-10T07:31:55.962Z,18.10
2019-06-10T07:34:24.638Z,18.20
2019-06-10T07:36:53.450Z,18.20
2019-06-10T07:39:22.700Z,18.30
2019-06-10T07:41:52.922Z,18.40
2019-06-10T07:44:22.662Z,18.50
2019-06-10T07:46:53.006Z,18.40
2019-06-10T07:49:23.879Z,18.70
2019-06-10T07:51:52.734Z,18.80
2019-06-10T07:54:23.054Z,19.00
2019-06-10T07:56:53.687Z,19.10
2019-06-10T07:59:23.338Z,19.20
2019-06-10T08:01:54.999Z,19.30
2019-06-10T08:04:22.709Z,19.30
2019-06-10T08:06:52.954Z,19.40
2019-06-10T08:09:22.776Z,19.60
2019-06-10T08:11:53.194Z,19.60
2019-06-10T08:14:22.317Z,19.60
2019-06-10T08:16:53.164Z,19.80
2019-06-10T08:19:31.554Z,19.80
2019-06-10T08:21:53.666Z,19.90
2019-06-10T08:24:22.391Z,20.10
2019-06-10T08:26:53.099Z,20.30
2019-06-10T08:29:23.428Z,20.30
2019-06-10T08:31:54.953Z,20.40
2019-06-10T08:34:23.620Z,20.40
2019-06-10T08:36:54.489Z,20.30
2019-06-10T08:39:29.822Z,20.30
2019-06-10T08:41:58.312Z,20.20
2019-06-10T08:44:26.894Z,20.10
2019-06-10T08:46:55.565Z,19.90
2019-06-10T08:49:24.108Z,19.70
2019-06-10T08:51:53.301Z,19.60
2019-06-10T08:54:23.413Z,19.50
2019-06-10T08:56:54.049Z,19.50
2019-06-10T08:59:23.223Z,19.40
2019-06-10T09:01:56.727Z,19.30
2019-06-10T09:04:22.845Z,19.10
2019-06-10T09:06:53.740Z,19.00
2019-06-10T09:09:22.572Z,18.90
2019-06-10T09:11:54.458Z,19.00
2019-06-10T09:14:23.491Z,18.60
2019-06-10T09:16:54.187Z,18.30
2019-06-10T09:19:22.774Z,18.20
2019-06-10T09:21:55.350Z,17.70
2019-06-10T09:24:22.240Z,17.60
2019-06-10T09:26:52.462Z,17.40
2019-06-10T09:29:22.282Z,17.30
2019-06-10T09:31:53.239Z,16.90
2019-06-10T09:34:23.804Z,16.80
2019-06-10T09:36:56.605Z,16.60
2019-06-10T09:39:27.175Z,16.50
2019-06-10T09:42:02.171Z,16.30
2019-06-10T09:44:26.114Z,16.40
2019-06-10T09:46:59.981Z,16.40
2019-06-10T09:49:27.953Z,16.50
2019-06-10T09:51:57.733Z,16.50
2019-06-10T09:54:26.752Z,16.70
2019-06-10T09:56:55.414Z,16.70
2019-06-10T09:59:24.055Z,16.80
2019-06-10T10:01:58.753Z,16.90
2019-06-10T10:04:23.680Z,17.00
2019-06-10T10:06:57.139Z,17.20
2019-06-10T10:09:25.968Z,17.30
2019-06-10T10:12:04.814Z,17.50
2019-06-10T10:14:28.016Z,17.60
2019-06-10T10:17:00.295Z,17.70
2019-06-10T10:19:27.228Z,17.70
2019-06-10T10:21:58.489Z,17.90
2019-06-10T10:24:26.341Z,18.00
2019-06-10T10:26:57.936Z,18.20
2019-06-10T10:29:25.118Z,18.20
2019-06-10T10:31:54.088Z,18.30
2019-06-10T10:34:23.862Z,18.40
2019-06-10T10:36:57.018Z,18.80
2019-06-10T10:39:24.626Z,19.20
2019-06-10T10:41:56.821Z,19.70
2019-06-10T10:44:23.428Z,19.80
2019-06-10T10:46:53.768Z,19.80
2019-06-10T10:49:22.403Z,19.90
2019-06-10T10:51:51.189Z,20.10
2019-06-10T10:54:29.848Z,20.30
2019-06-10T10:56:55.180Z,20.50
2019-06-10T10:59:22.055Z,20.60
2019-06-10T11:01:51.595Z,20.70
2019-06-10T11:04:23.130Z,20.70
2019-06-10T11:06:54.419Z,20.70
2019-06-10T11:09:24.517Z,20.80
2019-06-10T11:11:57.366Z,20.90
2019-06-10T11:14:26.788Z,20.60
2019-06-10T11:16:57.484Z,20.70
2019-06-10T11:19:25.836Z,21.00
2019-06-10T11:21:54.338Z,20.70
2019-06-10T11:24:33.541Z,20.70
2019-06-10T11:26:56.302Z,21.00
2019-06-10T11:29:23.394Z,21.10
2019-06-10T11:31:55.046Z,21.00
2019-06-10T11:34:22.593Z,21.10
2019-06-10T11:36:55.094Z,20.90
2019-06-10T11:39:22.535Z,21.00
2019-06-10T11:41:53.250Z,20.80
2019-06-10T11:44:22.507Z,20.80
2019-06-10T11:46:53.984Z,20.70
2019-06-10T11:49:23.763Z,20.60
2019-06-10T11:51:53.572Z,20.30
2019-06-10T11:54:24.002Z,20.30
2019-06-10T11:56:54.649Z,20.00
2019-06-10T11:59:22.682Z,19.90
2019-06-10T12:01:55.390Z,19.90
2019-06-10T12:04:23.783Z,19.90
2019-06-10T12:06:52.724Z,19.80
2019-06-10T12:09:23.007Z,19.60
2019-06-10T12:11:54.694Z,19.60
2019-06-10T12:14:26.800Z,19.80
2019-06-10T12:19:23.517Z,19.70
2019-06-10T12:21:55.632Z,19.70
2019-06-10T12:24:23.131Z,19.90
2019-06-10T12:26:57.971Z,19.80
2019-06-10T12:29:24.028Z,19.80
2019-06-10T12:31:56.119Z,19.80
2019-06-10T12:34:22.903Z,19.80
2019-06-10T12:36:56.301Z,19.90
2019-06-10T12:39:22.909Z,20.10
2019-06-10T12:41:54.844Z,20.30
2019-06-10T12:44:23.839Z,20.90
2019-06-10T12:46:54.906Z,21.40
2019-06-10T12:49:32.054Z,21.20
2019-06-10T12:52:02.597Z,21.60
2019-06-10T12:54:32.633Z,21.90
2019-06-10T12:57:04.694Z,22.60
2019-06-10T12:59:32.433Z,22.80
2019-06-10T13:02:11.337Z,23.00
2019-06-10T13:04:32.876Z,23.50
2019-06-10T13:07:05.191Z,23.40
2019-06-10T13:09:32.735Z,23.30
2019-06-10T13:12:02.038Z,23.00
2019-06-10T13:14:32.636Z,21.90
2019-06-10T13:17:03.011Z,21.60
2019-06-10T13:19:34.349Z,21.40
2019-06-10T13:22:04.546Z,21.50
2019-06-10T13:24:33.760Z,21.30
2019-06-10T13:27:04.774Z,20.90
2019-06-10T13:29:33.250Z,20.90
2019-06-10T13:32:04.175Z,20.90
2019-06-10T13:34:33.472Z,20.80
2019-06-10T13:37:03.890Z,20.90
2019-06-10T13:39:32.656Z,20.80
2019-06-10T13:47:33.173Z,20.80
2019-06-10T13:53:47.098Z,20.50
2019-06-10T13:59:17.898Z,20.50
2019-06-10T14:01:53.545Z,20.60
2019-06-10T14:04:25.715Z,20.90
2019-06-10T14:07:14.513Z,21.20
2019-06-10T14:16:55.508Z,22.60
2019-06-10T14:21:17.990Z,22.40
2019-06-10T14:22:32.854Z,21.80
2019-06-10T14:25:29.458Z,21.80
2019-06-10T14:28:04.331Z,21.70
2019-06-10T14:30:37.828Z,21.80
2019-06-10T14:33:07.435Z,22.10
2019-06-10T14:35:36.131Z,21.90
2019-06-10T14:38:24.103Z,21.90
2019-06-10T14:41:14.764Z,21.70
2019-06-10T14:44:04.598Z,21.80
2019-06-10T14:46:36.866Z,21.80
2019-06-10T14:49:08.847Z,22.00
2019-06-10T14:51:54.264Z,21.90
2019-06-10T14:57:42.688Z,21.80
2019-06-10T15:00:15.661Z,21.90
2019-06-10T15:02:44.542Z,21.80
2019-06-10T15:05:17.519Z,21.70
2019-06-10T15:07:47.794Z,21.40
2019-06-10T15:10:17.867Z,21.30
2019-06-10T15:16:17.609Z,21.30
2019-06-10T15:22:43.167Z,21.50
2019-06-10T15:38:59.461Z,21.80
2019-06-10T15:41:47.735Z,21.50
2019-06-10T15:45:02.299Z,21.50
2019-06-10T15:47:05.510Z,21.60
2019-06-10T15:52:52.420Z,21.50
2019-06-10T15:56:08.938Z,21.10
2019-06-10T15:58:12.916Z,21.00
2019-06-10T16:00:42.604Z,21.00
2019-06-10T16:22:30.027Z,21.20
2019-06-10T16:25:12.742Z,21.10
2019-06-10T16:27:58.274Z,21.00
2019-06-10T16:30:29.284Z,20.80
2019-06-10T16:32:57.990Z,20.70
2019-06-10T16:35:28.997Z,20.70
2019-06-10T16:38:01.535Z,20.60
2019-06-10T16:40:35.067Z,20.50
2019-06-10T16:43:09.427Z,20.40
2019-06-10T16:45:38.187Z,20.30
2019-06-10T16:48:09.793Z,20.10
2019-06-10T16:50:38.684Z,20.00
2019-06-10T16:53:36.990Z,19.90
2019-06-10T16:56:08.896Z,19.90
2019-06-10T16:58:39.175Z,19.80
2019-06-10T17:04:01.510Z,19.80
2019-06-10T17:06:27.917Z,19.80
2019-06-10T17:08:56.683Z,19.70
2019-06-10T17:11:27.514Z,19.60
2019-06-10T17:13:56.213Z,19.50
2019-06-10T17:16:26.407Z,19.60
2019-06-10T17:18:57.086Z,19.50
2019-06-10T17:21:29.737Z,19.50
2019-06-10T17:23:56.476Z,19.40
2019-06-10T17:26:30.575Z,19.40
2019-06-10T17:28:55.725Z,19.20
2019-06-10T17:31:28.494Z,19.10
2019-06-10T17:33:57.846Z,18.90
2019-06-10T17:36:29.509Z,18.70
2019-06-10T17:38:57.225Z,18.40
2019-06-10T17:41:29.015Z,18.40
2019-06-10T17:43:56.566Z,18.50
2019-06-10T17:46:27.862Z,18.40
2019-06-10T17:48:56.210Z,18.40
2019-06-10T17:51:27.486Z,18.20
2019-06-10T17:53:55.601Z,18.20
2019-06-10T17:56:26.261Z,18.30
2019-06-10T17:58:57.936Z,18.30
2019-06-10T18:01:25.530Z,18.20
2019-06-10T18:03:54.529Z,18.20
2019-06-10T18:06:25.441Z,18.30
2019-06-10T18:08:53.949Z,18.20
2019-06-10T18:11:24.309Z,17.90
2019-06-10T18:13:52.841Z,17.90
2019-06-10T18:16:22.803Z,17.90
2019-06-10T18:18:52.493Z,17.70
2019-06-10T18:21:22.340Z,17.60
2019-06-10T18:23:52.897Z,17.60
2019-06-10T18:26:23.078Z,17.50
2019-06-10T18:29:01.807Z,17.30
2019-06-10T18:31:23.395Z,17.40
2019-06-10T18:33:53.074Z,17.50
2019-06-10T18:36:24.320Z,17.80
2019-06-10T18:38:52.727Z,18.00
2019-06-10T18:41:22.370Z,18.00
2019-06-10T18:43:51.324Z,18.00
2019-06-10T18:46:19.939Z,18.00
2019-06-10T18:48:48.667Z,18.00
2019-06-10T18:51:17.342Z,18.00
2019-06-10T18:53:46.088Z,18.10
2019-06-10T18:56:15.936Z,18.20
2019-06-10T18:58:44.520Z,18.10
2019-06-10T19:01:14.604Z,18.20
2019-06-10T19:03:43.582Z,18.10
2019-06-10T19:06:12.670Z,18.00
2019-06-10T19:08:44.329Z,18.20
2019-06-10T19:11:11.897Z,17.80
2019-06-10T19:13:43.319Z,17.80
2019-06-10T19:16:13.016Z,17.80
2019-06-10T19:18:43.185Z,17.80
2019-06-10T19:21:12.825Z,18.10
2019-06-10T19:23:43.917Z,17.70
2019-06-10T19:26:13.449Z,17.90
2019-06-10T19:28:45.149Z,18.00
2019-06-10T19:31:13.234Z,17.90
2019-06-10T19:33:45.181Z,17.80
2019-06-10T19:36:16.377Z,17.70
2019-06-10T19:38:44.992Z,17.80
2019-06-10T19:41:13.750Z,17.80
2019-06-10T19:43:45.284Z,17.90
2019-06-10T19:46:13.068Z,17.90
2019-06-10T19:48:51.043Z,17.90
2019-06-10T19:51:12.252Z,17.70
2019-06-10T19:53:43.802Z,17.90
2019-06-10T19:56:13.012Z,17.70
2019-06-10T19:58:43.402Z,17.70
2019-06-10T20:01:12.049Z,17.80
2019-06-10T20:03:44.652Z,17.60
2019-06-10T20:06:13.029Z,17.50
2019-06-10T20:08:44.212Z,17.40
2019-06-10T20:11:12.409Z,17.30
2019-06-10T20:13:43.646Z,17.00
2019-06-10T20:16:12.050Z,16.90
2019-06-10T20:18:45.195Z,16.60
2019-06-10T20:21:12.884Z,16.30
2019-06-10T20:23:44.563Z,16.50
2019-06-10T20:26:12.190Z,16.50
2019-06-10T20:28:43.333Z,16.50
2019-06-10T20:31:12.748Z,16.40
2019-06-10T20:33:43.058Z,16.40
2019-06-10T20:36:21.626Z,16.30
2019-06-10T20:38:46.407Z,16.30
2019-06-10T20:41:14.082Z,16.30
2019-06-10T20:43:44.284Z,16.20
2019-06-10T20:46:13.406Z,16.10
2019-06-10T20:48:45.446Z,16.00
2019-06-10T20:51:14.261Z,16.10
2019-06-10T20:53:44.376Z,16.00
2019-06-10T20:56:13.422Z,16.00
2019-06-10T20:58:43.765Z,15.80
2019-06-10T21:01:12.627Z,15.60
2019-06-10T21:03:43.802Z,15.50
2019-06-10T21:06:13.763Z,15.50
2019-06-10T21:08:46.816Z,15.50
2019-06-10T21:11:13.928Z,15.60
2019-06-10T21:13:46.020Z,15.60
2019-06-10T21:16:13.054Z,15.50
2019-06-10T21:18:45.335Z,15.30
2019-06-10T21:21:12.193Z,15.40
2019-06-10T21:24:02.086Z,15.30
2019-06-10T21:26:43.321Z,15.10
2019-06-10T21:29:09.405Z,15.10
2019-06-10T21:31:38.411Z,15.00
2019-06-10T21:34:07.323Z,15.00
2019-06-10T21:36:36.176Z,15.00
2019-06-10T21:39:07.505Z,15.00
2019-06-10T21:41:36.335Z,15.00
2019-06-10T21:44:06.786Z,15.00
2019-06-10T21:46:35.613Z,14.90
2019-06-10T21:49:07.335Z,15.00
2019-06-10T21:51:35.126Z,14.80
2019-06-10T21:54:04.030Z,14.70
2019-06-10T21:56:32.941Z,14.60
2019-06-10T21:59:02.484Z,14.60
2019-06-10T22:01:32.603Z,14.60
2019-06-10T22:04:04.408Z,14.60
2019-06-10T22:06:33.166Z,14.70
2019-06-10T22:09:04.047Z,14.70
2019-06-10T22:11:32.585Z,14.50
2019-06-10T22:14:02.833Z,14.60
2019-06-10T22:16:32.957Z,14.80
2019-06-10T22:19:03.250Z,14.70
2019-06-10T22:21:32.692Z,14.50
2019-06-10T22:24:02.230Z,14.50
2019-06-10T22:26:32.279Z,14.50
2019-06-10T22:29:01.057Z,14.40
2019-06-10T22:31:32.461Z,14.40
2019-06-10T22:34:00.217Z,14.30
2019-06-10T22:36:28.901Z,14.40
2019-06-10T22:38:59.244Z,14.30
2019-06-10T22:41:28.219Z,14.40
2019-06-10T22:43:57.570Z,14.20
2019-06-10T22:46:26.445Z,13.90
2019-06-10T22:48:55.392Z,13.80
2019-06-10T22:51:26.191Z,13.70
2019-06-10T22:53:57.019Z,13.70
2019-06-10T22:56:25.401Z,13.70
2019-06-10T22:58:55.643Z,13.60
2019-06-10T23:01:34.424Z,13.60
2019-06-10T23:03:56.244Z,13.60
2019-06-10T23:06:25.287Z,13.60
2019-06-10T23:08:56.198Z,13.50
2019-06-10T23:11:24.629Z,13.60
2019-06-10T23:13:54.840Z,13.60
2019-06-10T23:16:23.667Z,13.40
2019-06-10T23:18:55.005Z,13.40
2019-06-10T23:21:22.862Z,13.40
2019-06-10T23:23:53.829Z,13.50
2019-06-10T23:26:22.602Z,13.50
2019-06-10T23:28:54.056Z,13.50
2019-06-10T23:33:56.858Z,13.20
2019-06-10T23:36:25.632Z,13.30
2019-06-10T23:38:54.837Z,13.40
2019-06-10T23:41:23.558Z,13.40
2019-06-10T23:43:53.034Z,13.40
2019-06-10T23:46:22.755Z,13.40
2019-06-10T23:48:51.664Z,13.30
2019-06-10T23:51:22.631Z,13.30
2019-06-10T23:53:55.349Z,13.20
2019-06-10T23:56:22.131Z,13.00
2019-06-10T23:58:53.743Z,13.00
